createdAt,value
2022-11-09T00:01:21.667Z,2.23
2022-11-09T00:03:24.497Z,2.30
2022-11-09T00:05:26.521Z,2.20
2022-11-09T00:07:34.390Z,2.33
2022-11-09T00:09:37.629Z,2.30
2022-11-09T00:11:39.527Z,2.40
2022-11-09T00:13:43.506Z,2.20
2022-11-09T00:15:45.206Z,2.60
2022-11-09T00:17:47.091Z,2.67
2022-11-09T00:19:48.867Z,2.67
2022-11-09T00:21:50.848Z,2.60
2022-11-09T00:23:53.335Z,2.50
2022-11-09T00:25:55.037Z,2.30
2022-11-09T00:27:56.933Z,2.00
2022-11-09T00:30:02.066Z,2.60
2022-11-09T00:32:04.169Z,2.00
2022-11-09T00:34:06.292Z,2.20
2022-11-09T00:36:12.796Z,2.30
2022-11-09T00:38:14.728Z,2.03
2022-11-09T00:40:17.305Z,2.10
2022-11-09T00:42:19.271Z,2.43
2022-11-09T00:44:21.078Z,2.07
2022-11-09T00:46:22.912Z,2.10
2022-11-09T00:48:26.159Z,2.27
2022-11-09T00:50:28.352Z,1.90
2022-11-09T00:52:30.879Z,1.60
2022-11-09T00:54:32.803Z,1.60
2022-11-09T00:56:35.400Z,1.57
2022-11-09T00:58:39.320Z,1.70
2022-11-09T01:00:41.205Z,1.67
2022-11-09T01:02:43.086Z,1.97
2022-11-09T01:04:44.952Z,1.90
2022-11-09T01:06:47.055Z,1.63
2022-11-09T01:08:49.671Z,1.67
2022-11-09T01:10:51.804Z,1.50
2022-11-09T01:12:53.918Z,1.50
2022-11-09T01:14:55.698Z,1.80
2022-11-09T01:16:57.656Z,1.70
2022-11-09T01:19:01.284Z,1.63
2022-11-09T01:21:05.076Z,1.73
2022-11-09T01:23:07.522Z,1.47
2022-11-09T01:25:10.154Z,1.20
2022-11-09T01:27:12.377Z,1.33
2022-11-09T01:29:14.290Z,1.50
2022-11-09T01:31:18.658Z,1.40
2022-11-09T01:33:21.274Z,1.50
2022-11-09T01:35:23.289Z,1.60
2022-11-09T01:37:25.264Z,1.60
2022-11-09T01:39:27.279Z,1.80
2022-11-09T01:41:29.226Z,1.70
2022-11-09T01:43:31.125Z,1.50
2022-11-09T01:45:33.727Z,1.50
2022-11-09T01:47:35.712Z,1.40
2022-11-09T01:49:48.804Z,1.40
2022-11-09T01:51:55.836Z,1.83
2022-11-09T01:54:03.791Z,1.50
2022-11-09T01:56:09.099Z,1.70
2022-11-09T01:58:17.088Z,1.43
2022-11-09T02:00:19.284Z,1.50
2022-11-09T02:02:21.992Z,1.30
2022-11-09T02:04:31.416Z,1.30
2022-11-09T02:06:33.779Z,1.50
2022-11-09T02:08:36.147Z,1.70
2022-11-09T02:11:06.073Z,1.30
2022-11-09T02:13:09.918Z,1.30
2022-11-09T02:15:13.244Z,1.20
2022-11-09T02:17:15.177Z,1.17
2022-11-09T02:19:19.231Z,1.50
2022-11-09T02:21:23.635Z,1.13
2022-11-09T02:23:26.494Z,1.30
2022-11-09T02:25:31.430Z,1.30
2022-11-09T02:27:33.322Z,1.40
2022-11-09T02:29:38.861Z,1.40
2022-11-09T02:31:46.456Z,1.60
2022-11-09T02:33:51.642Z,1.53
2022-11-09T02:35:53.480Z,1.33
2022-11-09T02:37:56.620Z,1.60
2022-11-09T02:40:02.960Z,1.30
2022-11-09T02:42:16.954Z,1.63
2022-11-09T02:44:23.379Z,1.50
2022-11-09T02:46:32.755Z,1.50
2022-11-09T02:48:35.037Z,1.60
2022-11-09T02:50:37.138Z,1.40
2022-11-09T02:52:43.341Z,1.87
2022-11-09T02:54:45.760Z,1.90
2022-11-09T02:56:47.827Z,1.70
2022-11-09T02:58:49.678Z,1.70
2022-11-09T03:00:52.789Z,1.37
2022-11-09T03:02:56.884Z,1.60
2022-11-09T03:04:58.703Z,1.50
2022-11-09T03:07:00.507Z,1.40
2022-11-09T03:09:04.995Z,1.50
2022-11-09T03:11:06.982Z,1.80
2022-11-09T03:13:09.002Z,1.67
2022-11-09T03:15:11.085Z,1.50
2022-11-09T03:17:18.440Z,1.50
2022-11-09T03:19:20.483Z,1.70
2022-11-09T03:21:27.678Z,1.70
2022-11-09T03:23:29.662Z,1.80
2022-11-09T03:25:32.026Z,1.60
2022-11-09T03:27:34.914Z,1.60
2022-11-09T03:29:37.534Z,1.83
2022-11-09T03:31:42.011Z,1.50
2022-11-09T03:33:45.619Z,1.80
2022-11-09T03:35:48.063Z,1.60
2022-11-09T03:37:53.192Z,1.43
2022-11-09T03:39:55.250Z,1.87
2022-11-09T03:41:57.251Z,1.57
2022-11-09T03:44:00.542Z,1.60
2022-11-09T03:46:02.383Z,1.60
2022-11-09T03:48:04.763Z,1.50
2022-11-09T03:50:07.096Z,1.40
2022-11-09T03:52:09.077Z,1.50
2022-11-09T03:54:10.810Z,1.40
2022-11-09T03:56:12.611Z,1.60
2022-11-09T03:58:14.745Z,1.77
2022-11-09T04:00:19.896Z,1.43
2022-11-09T04:02:22.245Z,1.40
2022-11-09T04:04:24.149Z,1.40
2022-11-09T04:06:26.063Z,1.60
2022-11-09T04:08:28.023Z,1.60
2022-11-09T04:10:30.133Z,1.40
2022-11-09T04:12:32.563Z,1.50
2022-11-09T04:14:34.576Z,1.70
2022-11-09T04:16:36.333Z,1.67
2022-11-09T04:18:39.305Z,1.50
2022-11-09T04:20:41.415Z,1.70
2022-11-09T04:22:43.173Z,1.67
2022-11-09T04:24:45.042Z,1.67
2022-11-09T04:26:50.532Z,1.60
2022-11-09T04:28:52.437Z,1.50
2022-11-09T04:30:54.234Z,1.60
2022-11-09T04:33:00.438Z,1.80
2022-11-09T04:35:02.324Z,1.70
2022-11-09T04:37:04.258Z,1.70
2022-11-09T04:39:06.138Z,1.80
2022-11-09T04:41:08.809Z,1.90
2022-11-09T04:43:15.714Z,1.87
2022-11-09T04:45:17.597Z,1.97
2022-11-09T04:47:19.475Z,1.90
2022-11-09T04:49:21.614Z,1.70
2022-11-09T04:51:23.474Z,2.10
2022-11-09T04:53:25.714Z,1.77
2022-11-09T04:55:27.824Z,1.60
2022-11-09T04:57:29.698Z,1.70
2022-11-09T04:59:31.611Z,1.80
2022-11-09T05:01:33.439Z,1.60
2022-11-09T05:03:35.621Z,1.60
2022-11-09T05:05:38.766Z,1.50
2022-11-09T05:07:41.310Z,1.60
2022-11-09T05:09:43.055Z,1.63
2022-11-09T05:11:44.879Z,1.40
2022-11-09T05:13:46.887Z,1.50
2022-11-09T05:15:48.817Z,1.30
2022-11-09T05:17:51.993Z,1.50
2022-11-09T05:19:56.424Z,1.77
2022-11-09T05:22:18.305Z,1.80
2022-11-09T05:24:20.221Z,1.37
2022-11-09T05:26:22.441Z,1.30
2022-11-09T05:28:24.251Z,1.37
2022-11-09T05:30:26.403Z,1.40
2022-11-09T05:32:28.274Z,1.20
2022-11-09T05:34:30.193Z,1.50
2022-11-09T05:36:34.968Z,1.57
2022-11-09T05:38:36.959Z,1.50
2022-11-09T05:40:40.053Z,1.20
2022-11-09T05:42:45.136Z,1.67
2022-11-09T05:44:46.917Z,1.30
2022-11-09T05:46:48.847Z,1.60
2022-11-09T05:48:50.714Z,1.60
2022-11-09T05:50:52.546Z,1.70
2022-11-09T05:53:00.887Z,1.73
2022-11-09T05:55:03.611Z,1.67
2022-11-09T05:57:05.571Z,1.60
2022-11-09T05:59:08.093Z,1.30
2022-11-09T06:01:13.057Z,1.40
2022-11-09T06:03:15.017Z,1.57
2022-11-09T06:05:17.222Z,1.60
2022-11-09T06:07:19.021Z,1.60
2022-11-09T06:09:24.172Z,1.70
2022-11-09T06:11:25.925Z,1.60
2022-11-09T06:13:31.811Z,1.57
2022-11-09T06:15:33.796Z,1.47
2022-11-09T06:17:35.587Z,1.40
2022-11-09T06:19:37.540Z,1.70
2022-11-09T06:21:39.417Z,1.47
2022-11-09T06:23:41.321Z,1.70
2022-11-09T06:25:43.066Z,1.60
2022-11-09T06:27:44.842Z,1.87
2022-11-09T06:29:46.720Z,1.77
2022-11-09T06:31:49.025Z,1.90
2022-11-09T06:33:51.249Z,1.60
2022-11-09T06:35:56.677Z,1.40
2022-11-09T06:38:00.073Z,1.60
2022-11-09T06:40:01.941Z,1.60
2022-11-09T06:42:04.008Z,1.70
2022-11-09T06:44:06.218Z,1.33
2022-11-09T06:46:08.654Z,1.70
2022-11-09T06:48:11.218Z,1.40
2022-11-09T06:50:12.988Z,1.60
2022-11-09T06:52:14.833Z,1.40
2022-11-09T06:54:16.633Z,1.40
2022-11-09T06:56:19.657Z,1.53
2022-11-09T06:58:22.158Z,1.53
2022-11-09T07:00:25.650Z,1.40
2022-11-09T07:02:27.648Z,1.60
2022-11-09T07:04:29.550Z,1.90
2022-11-09T07:06:31.552Z,1.43
2022-11-09T07:08:34.212Z,1.47
2022-11-09T07:10:36.085Z,1.67
2022-11-09T07:12:37.855Z,1.80
2022-11-09T07:14:39.769Z,1.70
2022-11-09T07:16:41.601Z,1.40
2022-11-09T07:18:45.831Z,1.70
2022-11-09T07:20:47.887Z,1.43
2022-11-09T07:22:51.460Z,1.50
2022-11-09T07:24:55.971Z,1.50
2022-11-09T07:26:57.802Z,1.50
2022-11-09T07:28:59.715Z,1.63
2022-11-09T07:31:01.724Z,2.00
2022-11-09T07:33:10.017Z,1.70
2022-11-09T07:35:12.351Z,1.50
2022-11-09T07:37:14.438Z,1.57
2022-11-09T07:39:17.262Z,1.30
2022-11-09T07:41:18.954Z,1.70
2022-11-09T07:43:21.172Z,1.90
2022-11-09T07:45:27.014Z,1.27
2022-11-09T07:47:28.841Z,1.83
2022-11-09T07:49:30.719Z,1.90
2022-11-09T07:51:34.615Z,1.90
2022-11-09T07:53:36.494Z,1.67
2022-11-09T07:55:41.981Z,1.50
2022-11-09T07:57:44.354Z,1.80
2022-11-09T07:59:46.322Z,1.60
2022-11-09T08:01:48.139Z,1.50
2022-11-09T08:03:50.313Z,1.80
2022-11-09T08:05:52.118Z,1.70
2022-11-09T08:08:02.236Z,1.70
2022-11-09T08:10:04.390Z,1.73
2022-11-09T08:12:06.388Z,1.60
2022-11-09T08:14:08.805Z,2.17
2022-11-09T08:16:10.874Z,2.00
2022-11-09T08:18:15.371Z,1.60
2022-11-09T08:20:18.270Z,2.00
2022-11-09T08:22:20.043Z,1.60
2022-11-09T08:24:22.210Z,1.87
2022-11-09T08:26:23.986Z,1.70
2022-11-09T08:28:26.974Z,1.40
2022-11-09T08:30:30.464Z,1.50
2022-11-09T08:32:32.336Z,1.90
2022-11-09T08:34:34.076Z,1.57
2022-11-09T08:36:36.342Z,1.80
2022-11-09T08:38:38.418Z,1.60
2022-11-09T08:40:40.260Z,1.70
2022-11-09T08:42:42.447Z,1.73
2022-11-09T08:44:44.322Z,1.83
2022-11-09T08:46:48.497Z,1.70
2022-11-09T08:48:50.253Z,1.73
2022-11-09T08:50:56.849Z,1.73
2022-11-09T08:52:59.008Z,1.50
2022-11-09T08:55:00.845Z,1.40
2022-11-09T08:57:03.015Z,1.57
2022-11-09T08:59:04.910Z,1.90
2022-11-09T09:01:17.097Z,1.63
2022-11-09T09:03:20.316Z,1.43
2022-11-09T09:05:23.001Z,1.67
2022-11-09T09:07:26.408Z,1.60
2022-11-09T09:09:28.814Z,1.83
2022-11-09T09:11:30.786Z,1.80
2022-11-09T09:13:33.173Z,1.63
2022-11-09T09:15:34.950Z,1.80
2022-11-09T09:17:37.151Z,1.50
2022-11-09T09:19:39.105Z,1.50
2022-11-09T09:21:41.290Z,1.70
2022-11-09T09:23:43.113Z,1.70
2022-11-09T09:25:45.216Z,1.67
2022-11-09T09:27:47.220Z,1.33
2022-11-09T09:29:51.557Z,1.50
2022-11-09T09:31:53.326Z,1.57
2022-11-09T09:33:55.036Z,1.90
2022-11-09T09:35:57.882Z,1.60
2022-11-09T09:37:59.649Z,1.97
2022-11-09T09:40:01.701Z,1.40
2022-11-09T09:42:11.825Z,1.50
2022-11-09T09:44:19.411Z,1.50
2022-11-09T09:46:30.496Z,1.40
2022-11-09T09:48:46.169Z,1.57
2022-11-09T09:51:01.411Z,1.75
2022-11-09T09:53:24.297Z,1.50
2022-11-09T09:55:41.052Z,1.50
2022-11-09T09:57:51.383Z,1.80
2022-11-09T09:59:57.314Z,1.70
2022-11-09T10:01:59.545Z,1.60
2022-11-09T10:04:01.701Z,1.60
2022-11-09T10:06:22.866Z,1.53
2022-11-09T10:08:47.176Z,1.67
2022-11-09T10:11:14.925Z,1.40
2022-11-09T10:13:29.773Z,1.53
2022-11-09T10:15:52.785Z,2.40
2022-11-09T10:18:09.866Z,1.40
2022-11-09T10:20:52.784Z,1.47
2022-11-09T10:23:27.166Z,1.80
2022-11-09T10:28:03.098Z,1.60
2022-11-09T10:30:16.398Z,1.30
2022-11-09T10:32:21.390Z,1.50
2022-11-09T10:34:38.088Z,1.70
2022-11-09T10:36:50.765Z,1.60
2022-11-09T10:38:56.556Z,1.60
2022-11-09T10:41:39.415Z,1.63
2022-11-09T10:43:59.526Z,1.40
2022-11-09T10:46:21.286Z,1.40
2022-11-09T10:48:42.143Z,1.60
2022-11-09T10:51:05.838Z,1.43
2022-11-09T10:53:32.537Z,1.63
2022-11-09T10:55:52.819Z,1.70
2022-11-09T10:58:26.099Z,1.40
2022-11-09T11:01:16.964Z,1.60
2022-11-09T11:03:39.657Z,1.47
2022-11-09T11:06:18.338Z,1.97
2022-11-09T11:08:41.654Z,1.47
2022-11-09T11:11:35.347Z,1.77
2022-11-09T11:14:23.418Z,1.50
2022-11-09T11:16:46.550Z,1.90
2022-11-09T11:19:27.455Z,1.53
2022-11-09T11:22:23.392Z,1.57
2022-11-09T11:25:01.808Z,1.70
2022-11-09T11:27:46.276Z,1.77
2022-11-09T11:30:28.561Z,1.90
2022-11-09T11:32:51.049Z,1.60
2022-11-09T11:35:36.425Z,1.40
2022-11-09T11:38:04.750Z,1.77
2022-11-09T11:40:30.888Z,1.60
2022-11-09T11:43:27.326Z,1.90
2022-11-09T11:46:05.767Z,1.90
2022-11-09T11:48:31.797Z,1.90
2022-11-09T11:51:11.024Z,1.80
2022-11-09T11:53:40.748Z,2.00
2022-11-09T11:56:06.640Z,1.80
2022-11-09T11:58:47.964Z,1.90
2022-11-09T12:01:26.477Z,1.60
2022-11-09T12:03:55.735Z,1.90
2022-11-09T12:06:26.640Z,1.70
2022-11-09T12:08:55.384Z,1.80
2022-11-09T12:11:43.558Z,2.23
2022-11-09T12:14:45.325Z,2.20
2022-11-09T12:17:32.891Z,2.00
2022-11-09T12:19:59.285Z,1.80
2022-11-09T12:22:39.996Z,1.53
2022-11-09T12:25:12.980Z,1.80
2022-11-09T12:27:56.726Z,1.87
2022-11-09T12:30:23.984Z,1.80
2022-11-09T12:32:57.804Z,1.93
2022-11-09T12:35:39.944Z,1.90
2022-11-09T12:38:17.747Z,1.87
2022-11-09T12:40:45.338Z,1.87
2022-11-09T12:43:18.604Z,2.03
2022-11-09T12:45:40.922Z,2.33
2022-11-09T12:48:31.460Z,1.70
2022-11-09T12:50:53.737Z,2.03
2022-11-09T12:53:15.617Z,1.73
2022-11-09T12:55:43.305Z,1.83
2022-11-09T12:58:04.370Z,2.10
2022-11-09T13:00:34.193Z,2.10
2022-11-09T13:03:04.727Z,1.60
2022-11-09T13:05:40.278Z,2.23
2022-11-09T13:08:02.837Z,1.77
2022-11-09T13:10:34.320Z,2.00
2022-11-09T13:13:15.844Z,2.00
2022-11-09T13:15:37.992Z,1.50
2022-11-09T13:18:00.189Z,1.63
2022-11-09T13:23:54.605Z,1.90
2022-11-09T13:26:37.624Z,2.37
2022-11-09T13:29:15.283Z,1.83
2022-11-09T13:32:00.515Z,1.70
2022-11-09T13:34:45.439Z,1.70
2022-11-09T13:37:42.982Z,2.10
2022-11-09T13:40:32.079Z,2.10
2022-11-09T13:43:00.941Z,1.60
2022-11-09T13:45:37.405Z,1.90
2022-11-09T13:47:57.911Z,2.10
2022-11-09T13:50:20.500Z,1.83
2022-11-09T13:52:44.469Z,1.77
2022-11-09T13:55:18.342Z,2.10
2022-11-09T13:57:40.894Z,1.80
2022-11-09T14:00:06.922Z,1.87
2022-11-09T14:02:27.720Z,1.80
2022-11-09T14:04:48.611Z,2.07
2022-11-09T14:07:28.456Z,1.60
2022-11-09T14:10:10.520Z,1.70
2022-11-09T14:12:58.997Z,1.60
2022-11-09T14:15:30.796Z,1.87
2022-11-09T14:18:24.332Z,1.63
2022-11-09T14:21:00.360Z,1.90
2022-11-09T14:23:23.895Z,2.10
2022-11-09T14:25:45.447Z,2.10
2022-11-09T14:28:22.790Z,2.30
2022-11-09T14:30:45.271Z,1.90
2022-11-09T14:33:28.113Z,2.10
2022-11-09T14:35:49.685Z,1.80
2022-11-09T14:38:24.990Z,1.87
2022-11-09T14:40:48.171Z,2.00
2022-11-09T14:43:35.904Z,1.67
2022-11-09T14:46:02.435Z,1.90
2022-11-09T14:48:24.626Z,1.80
2022-11-09T14:50:46.018Z,1.70
2022-11-09T14:53:06.906Z,1.60
2022-11-09T14:55:28.345Z,1.73
2022-11-09T14:57:51.308Z,1.67
2022-11-09T15:00:35.117Z,2.03
2022-11-09T15:02:56.779Z,1.63
2022-11-09T15:05:39.240Z,1.60
2022-11-09T15:08:05.545Z,2.10
2022-11-09T15:10:29.626Z,2.20
2022-11-09T15:12:53.333Z,1.60
2022-11-09T15:15:26.268Z,2.20
2022-11-09T15:17:47.160Z,2.43
2022-11-09T15:20:13.907Z,1.63
2022-11-09T15:22:51.198Z,2.20
2022-11-09T15:25:22.259Z,1.93
2022-11-09T15:27:43.045Z,1.77
2022-11-09T15:30:03.872Z,1.80
2022-11-09T15:32:24.695Z,1.80
2022-11-09T15:34:55.222Z,2.17
2022-11-09T15:37:31.882Z,2.10
2022-11-09T15:39:52.788Z,2.23
2022-11-09T15:42:13.596Z,2.10
2022-11-09T15:44:37.537Z,1.80
2022-11-09T15:46:58.733Z,1.80
2022-11-09T15:49:28.279Z,1.63
2022-11-09T15:51:49.153Z,1.90
2022-11-09T15:54:10.084Z,1.70
2022-11-09T15:56:31.296Z,1.70
2022-11-09T15:58:53.387Z,2.10
2022-11-09T16:01:14.100Z,2.13
2022-11-09T16:03:34.512Z,1.90
2022-11-09T16:05:54.734Z,1.73
2022-11-09T16:08:15.091Z,1.73
2022-11-09T16:10:39.991Z,1.90
2022-11-09T16:13:00.820Z,2.20
2022-11-09T16:15:20.997Z,1.87
2022-11-09T16:18:00.272Z,2.00
2022-11-09T16:20:21.291Z,1.83
2022-11-09T16:22:42.279Z,2.10
2022-11-09T16:25:03.899Z,1.90
2022-11-09T16:30:05.950Z,2.03
2022-11-09T16:32:27.131Z,1.80
2022-11-09T16:35:08.428Z,1.60
2022-11-09T16:37:31.726Z,2.20
2022-11-09T16:39:52.049Z,2.40
2022-11-09T16:42:14.206Z,1.97
2022-11-09T16:44:39.943Z,1.90
2022-11-09T16:47:03.997Z,4.17
2022-11-09T16:49:24.541Z,2.80
2022-11-09T16:51:45.823Z,2.13
2022-11-09T16:54:06.237Z,2.10
2022-11-09T16:56:26.986Z,2.33
2022-11-09T16:58:48.404Z,3.20
2022-11-09T17:01:12.478Z,2.23
2022-11-09T17:03:34.880Z,2.10
2022-11-09T17:06:01.504Z,2.10
2022-11-09T17:08:22.428Z,2.80
2022-11-09T17:10:45.996Z,5.33
2022-11-09T17:13:11.494Z,4.43
2022-11-09T17:15:31.942Z,4.43
2022-11-09T17:17:52.609Z,4.10
2022-11-09T17:20:16.854Z,2.60
2022-11-09T17:22:41.663Z,4.07
2022-11-09T17:25:06.107Z,3.00
2022-11-09T17:27:26.709Z,4.83
2022-11-09T17:29:47.226Z,4.50
2022-11-09T17:32:09.305Z,3.23
2022-11-09T17:34:29.861Z,2.93
2022-11-09T17:37:03.697Z,3.43
2022-11-09T17:39:25.910Z,3.80
2022-11-09T17:41:46.714Z,2.80
2022-11-09T17:44:07.388Z,4.30
2022-11-09T17:46:28.054Z,3.00
2022-11-09T17:48:51.026Z,2.57
2022-11-09T17:51:12.769Z,2.13
2022-11-09T17:53:33.616Z,3.00
2022-11-09T17:55:56.633Z,2.83
2022-11-09T17:58:17.401Z,2.50
2022-11-09T18:00:39.376Z,2.73
2022-11-09T18:03:01.316Z,2.60
2022-11-09T18:05:21.539Z,7.50
2022-11-09T18:07:42.287Z,5.00
2022-11-09T18:10:02.810Z,3.90
2022-11-09T18:12:24.568Z,3.87
2022-11-09T18:14:45.201Z,4.07
2022-11-09T18:17:05.450Z,3.20
2022-11-09T18:19:26.194Z,2.93
2022-11-09T18:21:47.414Z,4.87
2022-11-09T18:24:08.340Z,3.47
2022-11-09T18:26:31.451Z,3.93
2022-11-09T18:28:52.069Z,4.20
2022-11-09T18:31:14.133Z,3.03
2022-11-09T18:33:35.130Z,3.80
2022-11-09T18:36:00.480Z,3.63
2022-11-09T18:38:23.327Z,4.50
2022-11-09T18:40:45.815Z,3.40
2022-11-09T18:43:06.053Z,4.37
2022-11-09T18:45:27.787Z,4.23
2022-11-09T18:47:50.636Z,4.10
2022-11-09T18:50:10.826Z,3.30
2022-11-09T18:52:33.033Z,3.57
2022-11-09T18:54:54.763Z,3.10
2022-11-09T18:57:19.832Z,3.80
2022-11-09T18:59:42.439Z,3.83
2022-11-09T19:02:08.759Z,3.20
2022-11-09T19:04:29.191Z,3.03
2022-11-09T19:06:49.407Z,2.67
2022-11-09T19:09:29.161Z,2.60
2022-11-09T19:11:49.872Z,2.13
2022-11-09T19:14:11.268Z,2.20
2022-11-09T19:16:32.204Z,2.40
2022-11-09T19:18:53.798Z,2.27
2022-11-09T19:21:39.942Z,2.80
2022-11-09T19:24:00.569Z,2.90
2022-11-09T19:26:23.184Z,2.93
2022-11-09T19:28:43.390Z,2.43
2022-11-09T19:31:04.359Z,2.87
2022-11-09T19:33:24.729Z,2.40
2022-11-09T19:36:15.177Z,2.40
2022-11-09T19:38:30.466Z,2.63
2022-11-09T19:40:54.921Z,2.50
2022-11-09T19:43:15.460Z,2.40
2022-11-09T19:45:41.014Z,2.60
2022-11-09T19:48:01.878Z,2.63
2022-11-09T19:50:22.667Z,2.60
2022-11-09T19:52:43.227Z,2.40
2022-11-09T19:55:04.748Z,2.40
2022-11-09T19:57:25.262Z,2.50
2022-11-09T19:59:45.653Z,2.60
2022-11-09T20:02:06.300Z,2.43
2022-11-09T20:04:28.246Z,2.60
2022-11-09T20:06:48.734Z,2.63
2022-11-09T20:09:09.923Z,3.20
2022-11-09T20:11:49.273Z,2.60
2022-11-09T20:14:10.369Z,2.90
2022-11-09T20:16:32.879Z,2.83
2022-11-09T20:18:53.136Z,2.77
2022-11-09T20:21:13.284Z,2.57
2022-11-09T20:23:34.766Z,2.50
2022-11-09T20:26:09.494Z,3.13
2022-11-09T20:28:29.938Z,2.63
2022-11-09T20:30:50.314Z,2.70
2022-11-09T20:33:10.671Z,2.70
2022-11-09T20:35:31.333Z,2.70
2022-11-09T20:37:53.789Z,2.77
2022-11-09T20:40:15.453Z,2.80
2022-11-09T20:42:35.938Z,2.70
2022-11-09T20:44:56.662Z,2.20
2022-11-09T20:47:35.536Z,2.60
2022-11-09T20:49:58.036Z,2.67
2022-11-09T20:52:22.320Z,2.60
2022-11-09T20:54:42.946Z,3.10
2022-11-09T20:57:12.246Z,2.60
2022-11-09T20:59:34.544Z,2.90
2022-11-09T21:01:55.020Z,2.80
2022-11-09T21:04:15.101Z,3.20
2022-11-09T21:06:39.115Z,2.90
2022-11-09T21:09:01.282Z,3.10
2022-11-09T21:11:37.597Z,3.00
2022-11-09T21:13:58.334Z,3.00
2022-11-09T21:16:20.069Z,2.93
2022-11-09T21:18:41.381Z,2.93
2022-11-09T21:21:10.173Z,3.13
2022-11-09T21:23:49.293Z,3.00
2022-11-09T21:26:29.567Z,3.20
2022-11-09T21:29:08.931Z,3.00
2022-11-09T21:31:29.567Z,3.80
2022-11-09T21:33:53.317Z,3.23
2022-11-09T21:36:14.672Z,2.90
2022-11-09T21:38:35.454Z,3.20
2022-11-09T21:41:05.359Z,3.00
2022-11-09T21:43:28.439Z,3.10
2022-11-09T21:45:53.979Z,3.57
2022-11-09T21:48:14.153Z,3.53
2022-11-09T21:50:34.909Z,3.07
2022-11-09T21:52:55.536Z,3.17
2022-11-09T21:55:15.750Z,3.20
2022-11-09T21:57:35.894Z,3.10
2022-11-09T21:59:56.478Z,3.37
2022-11-09T22:02:17.089Z,3.70
2022-11-09T22:04:38.728Z,3.20
2022-11-09T22:06:59.177Z,3.37
2022-11-09T22:09:19.900Z,3.20
2022-11-09T22:11:59.159Z,3.70
2022-11-09T22:14:39.083Z,3.07
2022-11-09T22:17:00.161Z,3.43
2022-11-09T22:19:39.425Z,3.30
2022-11-09T22:21:59.837Z,3.23
2022-11-09T22:24:20.740Z,3.13
2022-11-09T22:26:41.726Z,3.40
2022-11-09T22:29:06.745Z,3.63
2022-11-09T22:31:27.994Z,4.03
2022-11-09T22:33:49.152Z,3.90
2022-11-09T22:36:12.055Z,3.33
2022-11-09T22:38:33.182Z,3.23
2022-11-09T22:40:54.149Z,3.50
2022-11-09T22:43:14.639Z,3.80
2022-11-09T22:45:35.289Z,4.50
2022-11-09T22:47:55.493Z,5.13
2022-11-09T22:50:18.570Z,4.83
2022-11-09T22:52:39.030Z,5.07
2022-11-09T22:54:59.695Z,4.70
2022-11-09T22:57:20.070Z,4.00
2022-11-09T22:59:41.591Z,4.63
2022-11-09T23:02:02.599Z,4.57
2022-11-09T23:04:25.985Z,3.70
2022-11-09T23:06:46.406Z,3.80
2022-11-09T23:09:06.930Z,3.97
2022-11-09T23:11:27.334Z,3.37
2022-11-09T23:13:50.193Z,4.53
2022-11-09T23:16:11.973Z,3.90
2022-11-09T23:18:52.179Z,5.33
2022-11-09T23:21:13.974Z,5.23
2022-11-09T23:23:34.567Z,5.07
2022-11-09T23:25:54.813Z,4.57
2022-11-09T23:28:18.344Z,4.27
2022-11-09T23:30:39.271Z,4.00
2022-11-09T23:33:06.928Z,4.23
2022-11-09T23:35:28.393Z,4.10
2022-11-09T23:37:56.785Z,4.13
2022-11-09T23:40:17.639Z,8.17
2022-11-09T23:42:38.425Z,5.27
2022-11-09T23:44:58.856Z,4.67
2022-11-09T23:47:19.637Z,4.80
2022-11-09T23:49:39.933Z,4.50
2022-11-09T23:52:00.361Z,4.80
2022-11-09T23:54:21.216Z,4.80
2022-11-09T23:56:41.973Z,4.87
2022-11-09T23:59:02.804Z,4.77
